Time;durP1;ratioP1;P1;durP2;ratioP2;P2;SDS_P1;SDS_P2;PMS_P1;PMS_P2;Temp;Humidity;BMP_temperature;BMP_pressure;BME280_temperature;BME280_humidity;BME280_pressure;Samples;Min_cycle;Max_cycle;Signal;HPM_P1;HPM_P2
2023/10/01 00:00:15;;;;;;;20.00;14.40;;;;;;;;;;5055638;28;20547;-75
2023/10/01 00:02:41;;;;;;;21.38;14.05;;;;;;;;;;5076174;28;20227;-76
2023/10/01 00:05:08;;;;;;;22.92;15.40;;;;;;;;;;5089868;28;20251;-76
2023/10/01 00:07:37;;;;;;;23.75;14.32;;;;;;;;;;5084343;28;20415;-76
2023/10/01 00:10:09;;;;;;;21.48;14.60;;;;;;;;;;5077320;28;20275;-76
2023/10/01 00:12:35;;;;;;;23.15;15.85;;;;;;;;;;5080048;28;20725;-76
2023/10/01 00:15:00;;;;;;;19.27;12.90;;;;;;;;;;5085833;28;20259;-76
2023/10/01 00:17:27;;;;;;;22.80;15.15;;;;;;;;;;5080204;28;20214;-76
2023/10/01 00:19:53;;;;;;;23.45;15.25;;;;;;;;;;5094916;28;20530;-76
2023/10/01 00:22:20;;;;;;;20.30;13.95;;;;;;;;;;5089611;28;20267;-76
2023/10/01 00:24:46;;;;;;;22.13;12.35;;;;;;;;;;5072340;28;20710;-76
2023/10/01 00:27:12;;;;;;;18.38;13.55;;;;;;;;;;5060331;28;20190;-76
2023/10/01 00:29:38;;;;;;;20.27;13.57;;;;;;;;;;5074276;28;20188;-76
2023/10/01 00:32:04;;;;;;;23.40;15.65;;;;;;;;;;5058175;28;20194;-76
2023/10/01 00:34:29;;;;;;;25.73;16.20;;;;;;;;;;5077074;28;20274;-75
2023/10/01 00:36:54;;;;;;;23.25;15.45;;;;;;;;;;5088331;28;20188;-76
2023/10/01 00:39:20;;;;;;;23.90;15.32;;;;;;;;;;5056298;28;20282;-75
2023/10/01 00:41:46;;;;;;;24.90;15.70;;;;;;;;;;5080633;28;20219;-76
2023/10/01 00:44:13;;;;;;;21.75;15.15;;;;;;;;;;5073568;28;20265;-76
2023/10/01 00:46:38;;;;;;;22.13;14.70;;;;;;;;;;5094501;28;20416;-76
2023/10/01 00:49:06;;;;;;;24.05;13.85;;;;;;;;;;5073736;28;20197;-75
2023/10/01 00:51:33;;;;;;;23.30;14.90;;;;;;;;;;5072275;28;20184;-75
2023/10/01 00:54:02;;;;;;;20.85;14.68;;;;;;;;;;5072682;28;20184;-74
2023/10/01 00:56:27;;;;;;;21.88;14.50;;;;;;;;;;5090603;28;20196;-73
2023/10/01 00:58:52;;;;;;;22.48;14.75;;;;;;;;;;5085320;28;20191;-75
2023/10/01 01:01:23;;;;;;;23.60;14.90;;;;;;;;;;5090542;28;20211;-74
2023/10/01 01:03:52;;;;;;;21.48;14.82;;;;;;;;;;5088310;28;20236;-74
2023/10/01 01:06:23;;;;;;;27.88;16.42;;;;;;;;;;5058987;28;20233;-75
2023/10/01 01:08:52;;;;;;;24.42;16.30;;;;;;;;;;5090841;28;20196;-75
2023/10/01 01:11:19;;;;;;;22.17;16.38;;;;;;;;;;5109055;28;20229;-74
2023/10/01 01:13:44;;;;;;;25.95;16.73;;;;;;;;;;5091906;28;20176;-74
2023/10/01 01:16:14;;;;;;;26.42;16.67;;;;;;;;;;5074754;28;20322;-74
2023/10/01 01:18:42;;;;;;;21.08;14.88;;;;;;;;;;5091698;28;20180;-73
2023/10/01 01:21:10;;;;;;;22.52;15.85;;;;;;;;;;5092415;28;20202;-73
2023/10/01 01:23:36;;;;;;;23.48;14.73;;;;;;;;;;5072850;28;20225;-74
2023/10/01 01:26:02;;;;;;;21.83;15.55;;;;;;;;;;5070918;28;20518;-74
2023/10/01 01:28:30;;;;;;;26.25;16.17;;;;;;;;;;5079373;28;20650;-72
2023/10/01 01:30:58;;;;;;;23.15;14.35;;;;;;;;;;5114422;28;20681;-74
2023/10/01 01:33:31;;;;;;;20.58;12.88;;;;;;;;;;5092305;28;20198;-72
2023/10/01 01:36:05;;;;;;;23.45;14.95;;;;;;;;;;5072232;28;20199;-71
2023/10/01 01:38:37;;;;;;;22.45;14.73;;;;;;;;;;5082156;28;20684;-73
2023/10/01 01:41:03;;;;;;;22.92;15.02;;;;;;;;;;5078227;28;20639;-74
2023/10/01 01:43:32;;;;;;;20.95;14.52;;;;;;;;;;5071318;28;20211;-74
2023/10/01 01:46:08;;;;;;;23.38;14.32;;;;;;;;;;5073774;28;20192;-74
2023/10/01 01:48:37;;;;;;;23.77;15.77;;;;;;;;;;5086450;28;20522;-73
2023/10/01 01:51:03;;;;;;;22.58;14.98;;;;;;;;;;5070077;28;20203;-72
2023/10/01 01:53:36;;;;;;;19.77;13.07;;;;;;;;;;5068276;28;20618;-73
2023/10/01 01:56:09;;;;;;;22.05;14.38;;;;;;;;;;5073328;28;20184;-74
2023/10/01 01:58:35;;;;;;;19.90;13.23;;;;;;;;;;5070664;28;20210;-74
2023/10/01 02:01:08;;;;;;;19.42;13.95;;;;;;;;;;5072926;28;20298;-73
2023/10/01 02:03:44;;;;;;;19.02;13.32;;;;;;;;;;5107798;28;20280;-75
2023/10/01 02:06:10;;;;;;;19.75;13.57;;;;;;;;;;5078986;28;20187;-74
2023/10/01 02:08:56;;;;;;;18.60;13.07;;;;;;;;;;5091343;28;20191;-74
2023/10/01 02:11:22;;;;;;;19.27;12.65;;;;;;;;;;5084068;28;20270;-74
2023/10/01 02:13:51;;;;;;;18.02;13.32;;;;;;;;;;5060904;28;20216;-74
2023/10/01 02:18:56;;;;;;;20.58;13.30;;;;;;;;;;5071389;28;20200;-75
2023/10/01 02:21:42;;;;;;;18.67;12.27;;;;;;;;;;5064542;28;20198;-74
2023/10/01 02:24:11;;;;;;;20.65;13.32;;;;;;;;;;5071555;28;20216;-75
2023/10/01 02:26:38;;;;;;;24.63;14.50;;;;;;;;;;5068108;28;20271;-74
2023/10/01 02:29:05;;;;;;;17.23;12.50;;;;;;;;;;5072400;28;20192;-75
2023/10/01 02:31:34;;;;;;;18.98;12.95;;;;;;;;;;5092114;28;20184;-74
2023/10/01 02:34:08;;;;;;;19.15;12.98;;;;;;;;;;5073294;28;20203;-75
2023/10/01 02:36:36;;;;;;;18.23;12.98;;;;;;;;;;5093003;28;20188;-74
2023/10/01 02:39:10;;;;;;;19.77;14.20;;;;;;;;;;5061159;28;20555;-72
2023/10/01 02:41:38;;;;;;;17.42;12.73;;;;;;;;;;5079551;28;20184;-75
2023/10/01 02:44:04;;;;;;;20.10;13.63;;;;;;;;;;5072978;28;20306;-75
2023/10/01 02:46:29;;;;;;;19.33;13.20;;;;;;;;;;5088513;28;20271;-75
2023/10/01 02:48:59;;;;;;;21.10;13.70;;;;;;;;;;5090367;28;20582;-75
2023/10/01 02:51:37;;;;;;;19.63;12.75;;;;;;;;;;5068012;28;20188;-75
2023/10/01 02:54:08;;;;;;;20.55;13.05;;;;;;;;;;5072390;28;20266;-75
2023/10/01 02:56:52;;;;;;;19.00;12.52;;;;;;;;;;5066888;28;20185;-73
2023/10/01 02:59:19;;;;;;;17.67;13.27;;;;;;;;;;5086652;28;20191;-72
2023/10/01 03:01:48;;;;;;;17.92;13.30;;;;;;;;;;5071819;28;20235;-74
2023/10/01 03:04:16;;;;;;;17.25;13.10;;;;;;;;;;5071770;28;20216;-75
2023/10/01 03:06:55;;;;;;;15.88;11.88;;;;;;;;;;5069576;28;20184;-75
2023/10/01 03:09:34;;;;;;;23.38;13.25;;;;;;;;;;5071366;28;20188;-75
2023/10/01 03:15:15;;;;;;;17.38;11.88;;;;;;;;;;5073659;28;20184;-73
2023/10/01 03:17:56;;;;;;;18.42;12.82;;;;;;;;;;5048158;28;20222;-74
2023/10/01 03:23:10;;;;;;;19.65;13.50;;;;;;;;;;5067862;28;20284;-75
2023/10/01 03:25:56;;;;;;;21.38;12.80;;;;;;;;;;5090384;28;20668;-75
2023/10/01 03:28:26;;;;;;;18.73;13.27;;;;;;;;;;5072255;28;20180;-75
2023/10/01 03:31:06;;;;;;;21.45;13.13;;;;;;;;;;5091314;28;20184;-75
2023/10/01 03:33:39;;;;;;;19.33;12.80;;;;;;;;;;5056595;28;20295;-75
2023/10/01 03:36:09;;;;;;;20.60;13.15;;;;;;;;;;5072140;28;20191;-75
2023/10/01 03:38:36;;;;;;;18.45;12.82;;;;;;;;;;5082020;28;20191;-76
2023/10/01 03:41:08;;;;;;;21.08;13.05;;;;;;;;;;5096943;28;20184;-74
2023/10/01 03:43:37;;;;;;;15.65;12.00;;;;;;;;;;5080006;28;20290;-74
2023/10/01 03:46:14;;;;;;;20.90;12.32;;;;;;;;;;5072063;28;20678;-75
2023/10/01 03:48:58;;;;;;;18.40;13.32;;;;;;;;;;5073973;28;20184;-75
2023/10/01 03:54:26;;;;;;;22.40;13.85;;;;;;;;;;5070326;28;20617;-74
2023/10/01 03:56:58;;;;;;;17.75;12.05;;;;;;;;;;5089901;28;20192;-75
2023/10/01 03:59:24;;;;;;;20.13;13.00;;;;;;;;;;5072848;28;20187;-73
2023/10/01 04:01:59;;;;;;;17.38;12.00;;;;;;;;;;5082072;28;20558;-75
2023/10/01 04:04:56;;;;;;;19.15;13.48;;;;;;;;;;5067961;28;20259;-75
2023/10/01 04:07:17;;;;;;;17.75;11.98;;;;;;;;;;5070778;28;20242;-75
2023/10/01 04:09:46;;;;;;;17.52;11.43;;;;;;;;;;5067570;28;20556;-74
2023/10/01 04:12:28;;;;;;;19.70;12.65;;;;;;;;;;5074638;28;20216;-75
2023/10/01 04:15:01;;;;;;;19.00;12.68;;;;;;;;;;5074322;28;20194;-74
2023/10/01 04:17:26;;;;;;;17.20;12.23;;;;;;;;;;5076451;28;20188;-74
2023/10/01 04:20:00;;;;;;;19.65;12.60;;;;;;;;;;5045559;28;20188;-73
2023/10/01 04:22:28;;;;;;;18.98;11.82;;;;;;;;;;5080504;28;20192;-75
2023/10/01 04:25:11;;;;;;;19.40;12.10;;;;;;;;;;5075786;28;20231;-74
2023/10/01 04:27:45;;;;;;;18.95;12.90;;;;;;;;;;5073415;28;20667;-75
2023/10/01 04:30:11;;;;;;;20.60;12.35;;;;;;;;;;5076420;28;20362;-74
2023/10/01 04:32:37;;;;;;;16.60;11.88;;;;;;;;;;5063315;28;20791;-75
2023/10/01 04:35:16;;;;;;;18.58;12.10;;;;;;;;;;5077328;28;20180;-74
2023/10/01 04:37:43;;;;;;;18.92;12.52;;;;;;;;;;5065557;28;20271;-72
2023/10/01 04:42:56;;;;;;;17.30;11.88;;;;;;;;;;5070386;28;20648;-74
2023/10/01 04:45:24;;;;;;;18.73;12.07;;;;;;;;;;5063637;28;20208;-73
2023/10/01 04:47:55;;;;;;;15.60;11.35;;;;;;;;;;5082305;28;20628;-74
2023/10/01 04:50:27;;;;;;;18.25;11.63;;;;;;;;;;5058438;28;20180;-73
2023/10/01 04:52:57;;;;;;;19.67;11.68;;;;;;;;;;5085578;28;20221;-75
2023/10/01 04:55:25;;;;;;;19.30;10.95;;;;;;;;;;5083513;28;20181;-75
2023/10/01 04:57:51;;;;;;;18.02;11.07;;;;;;;;;;5078919;28;20188;-72
2023/10/01 05:00:21;;;;;;;19.83;11.00;;;;;;;;;;5071611;28;20198;-71
2023/10/01 05:02:47;;;;;;;20.50;9.35;;;;;;;;;;5082742;28;20305;-72
2023/10/01 05:05:16;;;;;;;18.55;11.05;;;;;;;;;;5072009;28;20244;-74
2023/10/01 05:07:42;;;;;;;20.02;10.70;;;;;;;;;;5079273;28;20709;-74
2023/10/01 05:10:08;;;;;;;17.50;10.93;;;;;;;;;;5076635;28;20562;-73
2023/10/01 05:12:43;;;;;;;20.52;9.75;;;;;;;;;;5092321;28;20192;-74
2023/10/01 05:15:17;;;;;;;15.93;9.50;;;;;;;;;;5073301;28;20180;-75
2023/10/01 05:17:43;;;;;;;16.92;10.15;;;;;;;;;;5086699;28;20753;-73
2023/10/01 05:20:09;;;;;;;18.70;9.15;;;;;;;;;;5092041;28;20604;-75
2023/10/01 05:22:46;;;;;;;17.90;9.40;;;;;;;;;;5079691;28;20215;-73
2023/10/01 05:25:18;;;;;;;17.85;9.77;;;;;;;;;;5091704;28;20627;-69
2023/10/01 05:27:44;;;;;;;17.67;9.55;;;;;;;;;;5092066;28;20253;-74
2023/10/01 05:32:58;;;;;;;15.88;9.68;;;;;;;;;;5088124;28;20187;-74
2023/10/01 05:35:24;;;;;;;16.80;9.90;;;;;;;;;;5084307;28;20631;-73
2023/10/01 05:37:50;;;;;;;16.90;10.00;;;;;;;;;;5078821;28;20188;-75
2023/10/01 05:40:15;;;;;;;14.70;9.45;;;;;;;;;;5071938;28;20195;-73
2023/10/01 05:42:44;;;;;;;16.77;9.65;;;;;;;;;;5071218;28;20187;-74
2023/10/01 05:45:18;;;;;;;19.70;10.35;;;;;;;;;;5055505;28;20200;-74
2023/10/01 05:48:01;;;;;;;18.00;10.05;;;;;;;;;;5071425;28;20195;-74
2023/10/01 05:50:29;;;;;;;13.75;8.65;;;;;;;;;;5055185;28;20711;-73
2023/10/01 05:52:55;;;;;;;18.00;9.50;;;;;;;;;;5062842;28;20188;-71
2023/10/01 05:55:23;;;;;;;14.18;8.32;;;;;;;;;;5055775;28;20231;-71
2023/10/01 05:57:50;;;;;;;14.52;8.73;;;;;;;;;;5088311;28;20249;-70
2023/10/01 06:00:18;;;;;;;17.00;9.52;;;;;;;;;;5076122;28;20280;-74
2023/10/01 06:02:48;;;;;;;17.63;9.00;;;;;;;;;;5090608;28;20239;-71
2023/10/01 06:05:33;;;;;;;19.35;9.40;;;;;;;;;;5081429;28;20310;-70
2023/10/01 06:08:13;;;;;;;17.08;9.38;;;;;;;;;;5065273;28;22309;-68
2023/10/01 06:10:47;;;;;;;17.08;9.80;;;;;;;;;;5081196;28;20264;-74
2023/10/01 06:13:14;;;;;;;18.42;9.27;;;;;;;;;;5092423;28;20235;-70
2023/10/01 06:15:40;;;;;;;15.57;8.73;;;;;;;;;;5097057;28;20196;-74
2023/10/01 06:18:05;;;;;;;13.90;9.20;;;;;;;;;;5087681;28;20191;-72
2023/10/01 06:20:33;;;;;;;13.75;9.25;;;;;;;;;;5090578;28;20247;-74
2023/10/01 06:22:59;;;;;;;19.83;9.15;;;;;;;;;;5088209;28;20283;-73
2023/10/01 06:25:37;;;;;;;15.27;9.25;;;;;;;;;;5089877;28;20242;-73
2023/10/01 06:28:19;;;;;;;17.98;9.07;;;;;;;;;;5089903;28;20195;-73
2023/10/01 06:30:46;;;;;;;13.73;8.38;;;;;;;;;;5084102;28;20192;-72
2023/10/01 06:33:29;;;;;;;17.20;9.48;;;;;;;;;;5086949;28;20299;-74
2023/10/01 06:36:15;;;;;;;16.40;8.60;;;;;;;;;;5071288;28;20192;-72
2023/10/01 06:38:41;;;;;;;18.60;9.07;;;;;;;;;;5091527;28;20176;-74
2023/10/01 06:41:13;;;;;;;13.73;8.48;;;;;;;;;;5082716;28;20321;-72
2023/10/01 06:43:56;;;;;;;15.13;8.70;;;;;;;;;;5085815;28;20207;-73
2023/10/01 06:46:27;;;;;;;19.90;8.55;;;;;;;;;;5068979;28;20187;-74
2023/10/01 06:48:54;;;;;;;15.48;8.25;;;;;;;;;;5078021;28;20315;-74
2023/10/01 06:51:21;;;;;;;13.70;7.97;;;;;;;;;;5088682;28;20670;-72
2023/10/01 06:53:47;;;;;;;18.77;8.77;;;;;;;;;;5090302;28;20184;-74
2023/10/01 06:56:17;;;;;;;17.13;8.60;;;;;;;;;;5089345;28;20203;-75
2023/10/01 06:59:03;;;;;;;15.20;8.10;;;;;;;;;;5071394;28;20275;-73
2023/10/01 07:01:42;;;;;;;19.88;8.75;;;;;;;;;;5072522;28;20208;-76
2023/10/01 07:04:11;;;;;;;14.50;8.50;;;;;;;;;;5037719;28;20245;-75
2023/10/01 07:06:37;;;;;;;15.25;8.07;;;;;;;;;;5048098;28;20233;-68
2023/10/01 07:09:04;;;;;;;15.98;8.50;;;;;;;;;;5052869;28;20189;-75
2023/10/01 07:11:29;;;;;;;16.05;8.23;;;;;;;;;;5053911;28;20189;-76
2023/10/01 07:13:56;;;;;;;15.93;8.70;;;;;;;;;;5061935;28;20265;-75
2023/10/01 07:16:35;;;;;;;18.02;8.10;;;;;;;;;;5058126;28;20197;-74
2023/10/01 07:19:11;;;;;;;15.77;8.80;;;;;;;;;;5052600;28;20199;-74
2023/10/01 07:21:38;;;;;;;17.30;8.80;;;;;;;;;;5052182;28;20188;-71
2023/10/01 07:24:04;;;;;;;13.27;7.72;;;;;;;;;;5066418;28;20217;-72
2023/10/01 07:26:30;;;;;;;15.88;8.35;;;;;;;;;;5057873;28;20194;-73
2023/10/01 07:28:56;;;;;;;14.35;7.90;;;;;;;;;;5062299;28;20201;-73
2023/10/01 07:31:24;;;;;;;15.45;7.72;;;;;;;;;;5054079;28;20184;-70
2023/10/01 07:33:54;;;;;;;13.73;8.05;;;;;;;;;;5051153;28;20189;-73
2023/10/01 07:36:20;;;;;;;20.08;8.88;;;;;;;;;;5064068;28;20193;-73
2023/10/01 07:38:52;;;;;;;17.60;8.18;;;;;;;;;;5056830;28;20193;-73
2023/10/01 07:41:20;;;;;;;17.48;8.25;;;;;;;;;;5058200;28;20290;-74
2023/10/01 07:43:46;;;;;;;19.00;8.68;;;;;;;;;;5050307;28;20274;-72
2023/10/01 07:46:14;;;;;;;15.70;8.27;;;;;;;;;;5050129;28;20190;-73
2023/10/01 07:48:46;;;;;;;17.23;8.70;;;;;;;;;;5034036;28;20200;-72
2023/10/01 07:51:26;;;;;;;16.55;9.55;;;;;;;;;;5061789;28;20580;-74
2023/10/01 07:53:53;;;;;;;16.77;8.95;;;;;;;;;;5051799;28;20438;-74
2023/10/01 07:56:23;;;;;;;15.60;8.35;;;;;;;;;;5052328;28;20204;-74
2023/10/01 07:59:17;;;;;;;15.40;7.57;;;;;;;;;;5043558;28;20258;-74
2023/10/01 08:01:43;;;;;;;14.13;7.63;;;;;;;;;;5048541;28;20266;-74
2023/10/01 08:07:06;;;;;;;18.38;9.27;;;;;;;;;;5052121;28;20511;-70
2023/10/01 08:09:39;;;;;;;15.80;8.40;;;;;;;;;;5048761;28;20215;-74
2023/10/01 08:12:05;;;;;;;18.17;9.18;;;;;;;;;;5047197;28;20688;-74
2023/10/01 08:14:34;;;;;;;13.95;7.80;;;;;;;;;;5047953;28;20224;-71
2023/10/01 08:17:05;;;;;;;18.00;8.20;;;;;;;;;;5048315;28;20185;-72
2023/10/01 08:19:56;;;;;;;15.02;7.97;;;;;;;;;;5048808;28;20194;-75
2023/10/01 08:22:23;;;;;;;15.90;8.20;;;;;;;;;;5040167;28;20212;-74
2023/10/01 08:24:49;;;;;;;16.70;8.15;;;;;;;;;;5046185;28;20209;-73
2023/10/01 08:27:31;;;;;;;17.05;8.23;;;;;;;;;;5027413;28;20182;-71
2023/10/01 08:30:18;;;;;;;17.83;8.02;;;;;;;;;;5066295;28;20181;-71
2023/10/01 08:32:49;;;;;;;16.92;8.57;;;;;;;;;;5047232;28;20190;-74
2023/10/01 08:35:23;;;;;;;18.75;8.55;;;;;;;;;;5050128;28;20182;-68
2023/10/01 08:37:49;;;;;;;14.80;8.07;;;;;;;;;;5049791;28;20321;-71
2023/10/01 08:40:17;;;;;;;16.67;8.38;;;;;;;;;;5048087;28;20185;-71
2023/10/01 08:42:47;;;;;;;13.80;7.97;;;;;;;;;;5049742;28;20185;-73
2023/10/01 08:45:17;;;;;;;14.63;7.68;;;;;;;;;;5053555;28;20239;-73
2023/10/01 08:47:45;;;;;;;17.52;9.02;;;;;;;;;;5071055;28;20556;-73
2023/10/01 08:53:09;;;;;;;16.38;8.40;;;;;;;;;;5051995;28;20189;-74
2023/10/01 08:55:39;;;;;;;16.13;7.97;;;;;;;;;;5052612;28;20185;-71
2023/10/01 08:58:15;;;;;;;17.00;8.93;;;;;;;;;;5053213;28;20189;-74
2023/10/01 09:00:52;;;;;;;21.00;8.93;;;;;;;;;;5049601;28;20199;-74
2023/10/01 09:03:34;;;;;;;17.92;8.43;;;;;;;;;;5050748;28;20325;-75
2023/10/01 09:06:03;;;;;;;15.73;8.48;;;;;;;;;;5067089;28;20247;-75
2023/10/01 09:08:33;;;;;;;19.70;9.07;;;;;;;;;;5062572;28;20267;-72
2023/10/01 09:11:00;;;;;;;15.77;8.98;;;;;;;;;;5056881;28;20644;-75
2023/10/01 09:13:30;;;;;;;16.58;8.20;;;;;;;;;;5063184;28;20193;-74
2023/10/01 09:16:09;;;;;;;16.15;8.00;;;;;;;;;;5048479;28;20204;-72
2023/10/01 09:18:37;;;;;;;16.85;8.15;;;;;;;;;;5082115;28;20275;-73
2023/10/01 09:21:20;;;;;;;14.63;8.35;;;;;;;;;;5070012;28;20184;-74
2023/10/01 09:23:54;;;;;;;17.40;8.82;;;;;;;;;;5065739;28;20197;-72
2023/10/01 09:26:41;;;;;;;17.98;9.68;;;;;;;;;;5071210;28;20184;-69
2023/10/01 09:29:23;;;;;;;14.10;8.10;;;;;;;;;;5069318;28;20237;-72
2023/10/01 09:31:56;;;;;;;18.33;9.13;;;;;;;;;;5068211;28;20185;-70
2023/10/01 09:34:31;;;;;;;17.83;8.70;;;;;;;;;;5071195;28;20264;-72
2023/10/01 09:37:52;;;;;;;16.95;8.43;;;;;;;;;;5049724;28;20194;-74
2023/10/01 09:40:32;;;;;;;16.25;8.15;;;;;;;;;;5058391;28;20214;-72
2023/10/01 09:43:02;;;;;;;18.23;9.15;;;;;;;;;;5062659;28;20205;-75
2023/10/01 09:45:37;;;;;;;19.50;9.02;;;;;;;;;;5049310;28;20287;-71
2023/10/01 09:48:09;;;;;;;16.88;8.65;;;;;;;;;;5064130;28;20208;-72
2023/10/01 09:50:42;;;;;;;20.90;8.98;;;;;;;;;;5061651;28;20211;-71
2023/10/01 09:53:19;;;;;;;18.30;8.23;;;;;;;;;;5063615;28;20273;-68
2023/10/01 09:55:51;;;;;;;16.08;8.30;;;;;;;;;;5060354;28;20666;-69
2023/10/01 09:58:24;;;;;;;17.08;8.13;;;;;;;;;;5065265;28;20288;-72
2023/10/01 10:01:01;;;;;;;18.70;8.80;;;;;;;;;;5064257;28;20287;-75
2023/10/01 10:03:37;;;;;;;15.82;8.65;;;;;;;;;;5073442;28;20228;-72
2023/10/01 10:06:07;;;;;;;16.17;8.50;;;;;;;;;;5056477;28;20290;-72
2023/10/01 10:08:34;;;;;;;19.15;7.57;;;;;;;;;;5077063;28;20300;-73
2023/10/01 10:11:02;;;;;;;15.40;8.02;;;;;;;;;;5081114;28;20675;-72
2023/10/01 10:13:48;;;;;;;18.77;8.25;;;;;;;;;;5091826;28;20193;-73
2023/10/01 10:16:33;;;;;;;16.42;8.25;;;;;;;;;;5053215;28;20251;-67
2023/10/01 10:19:13;;;;;;;18.30;8.85;;;;;;;;;;5069910;28;20191;-72
2023/10/01 10:24:46;;;;;;;18.80;7.97;;;;;;;;;;5071218;28;20298;-70
2023/10/01 10:27:24;;;;;;;15.98;7.60;;;;;;;;;;5084701;28;20188;-75
2023/10/01 10:30:01;;;;;;;14.70;7.80;;;;;;;;;;5081140;28;20279;-73
2023/10/01 10:32:42;;;;;;;18.83;8.60;;;;;;;;;;5068176;28;20651;-74
2023/10/01 10:35:13;;;;;;;17.88;8.18;;;;;;;;;;5092199;28;20262;-70
2023/10/01 10:37:39;;;;;;;17.15;8.57;;;;;;;;;;5091685;28;20199;-71
2023/10/01 10:43:02;;;;;;;14.48;8.02;;;;;;;;;;5068587;28;20272;-70
2023/10/01 10:45:31;;;;;;;17.20;8.15;;;;;;;;;;5082418;28;20303;-72
2023/10/01 10:48:02;;;;;;;16.33;7.78;;;;;;;;;;5082886;28;20716;-74
2023/10/01 10:50:53;;;;;;;18.05;7.93;;;;;;;;;;5080065;28;20555;-73
2023/10/01 10:53:39;;;;;;;16.73;7.53;;;;;;;;;;5046187;28;20187;-73
2023/10/01 10:56:14;;;;;;;17.55;7.93;;;;;;;;;;5059507;28;20188;-74
2023/10/01 10:58:53;;;;;;;19.80;8.20;;;;;;;;;;5085373;28;20199;-74
2023/10/01 11:01:19;;;;;;;17.35;7.97;;;;;;;;;;5079236;28;20307;-72
2023/10/01 11:03:51;;;;;;;17.98;8.07;;;;;;;;;;5084223;28;20232;-73
2023/10/01 11:06:39;;;;;;;16.33;7.68;;;;;;;;;;5060318;28;20254;-72
2023/10/01 11:09:27;;;;;;;17.00;8.00;;;;;;;;;;5072999;28;20275;-74
2023/10/01 11:12:22;;;;;;;16.33;7.93;;;;;;;;;;5080884;28;20191;-72
2023/10/01 11:17:47;;;;;;;17.15;7.10;;;;;;;;;;5076025;28;20666;-72
2023/10/01 11:20:22;;;;;;;17.55;7.90;;;;;;;;;;5090696;28;20210;-75
2023/10/01 11:22:54;;;;;;;16.92;7.95;;;;;;;;;;5086845;28;20239;-76
2023/10/01 11:25:23;;;;;;;17.63;8.18;;;;;;;;;;5056153;28;20299;-75
2023/10/01 11:28:08;;;;;;;18.17;8.13;;;;;;;;;;5071134;28;20192;-68
2023/10/01 11:30:42;;;;;;;16.45;7.55;;;;;;;;;;5082920;28;20244;-69
2023/10/01 11:35:41;;;;;;;19.35;7.47;;;;;;;;;;5080735;28;20181;-72
2023/10/01 11:38:13;;;;;;;15.20;7.68;;;;;;;;;;5081325;28;20635;-74
2023/10/01 11:43:28;;;;;;;14.15;6.63;;;;;;;;;;5091161;28;20642;-73
2023/10/01 11:46:20;;;;;;;15.25;7.10;;;;;;;;;;5076358;28;20192;-75
2023/10/01 11:49:02;;;;;;;14.15;7.25;;;;;;;;;;5067723;28;20283;-75
2023/10/01 11:51:50;;;;;;;13.95;6.80;;;;;;;;;;5086449;28;20186;-71
2023/10/01 11:54:16;;;;;;;12.15;6.03;;;;;;;;;;5063603;28;20188;-72
2023/10/01 11:56:43;;;;;;;11.35;5.95;;;;;;;;;;5074833;28;20438;-69
2023/10/01 11:59:19;;;;;;;12.18;5.43;;;;;;;;;;5079022;28;20203;-75
2023/10/01 12:01:47;;;;;;;12.23;6.00;;;;;;;;;;5058013;28;20208;-70
2023/10/01 12:04:21;;;;;;;10.13;4.93;;;;;;;;;;5080961;28;20281;-68
2023/10/01 12:06:56;;;;;;;12.70;5.10;;;;;;;;;;5071872;28;20207;-71
2023/10/01 12:09:24;;;;;;;11.35;5.60;;;;;;;;;;5092392;28;20183;-74
2023/10/01 12:12:08;;;;;;;10.93;5.53;;;;;;;;;;5072311;28;20215;-71
2023/10/01 12:14:52;;;;;;;10.32;5.55;;;;;;;;;;5076034;28;20446;-68
2023/10/01 12:17:23;;;;;;;11.77;5.60;;;;;;;;;;5082214;28;20192;-74
2023/10/01 12:19:57;;;;;;;10.93;4.85;;;;;;;;;;5068001;28;20188;-71
2023/10/01 12:22:26;;;;;;;11.85;4.68;;;;;;;;;;5089899;28;20262;-72
2023/10/01 12:24:58;;;;;;;10.43;4.53;;;;;;;;;;5088271;28;20229;-71
2023/10/01 12:27:38;;;;;;;10.93;4.10;;;;;;;;;;5073551;28;20187;-73
2023/10/01 12:30:11;;;;;;;10.25;4.63;;;;;;;;;;5063011;28;20192;-71
2023/10/01 12:32:41;;;;;;;11.00;4.70;;;;;;;;;;5098000;28;20190;-71
2023/10/01 12:35:29;;;;;;;10.32;4.68;;;;;;;;;;5075025;28;20286;-73
2023/10/01 12:38:05;;;;;;;9.68;4.75;;;;;;;;;;5093693;28;20195;-73
2023/10/01 12:40:35;;;;;;;9.18;4.60;;;;;;;;;;5068952;28;20248;-67
2023/10/01 12:45:54;;;;;;;10.60;5.07;;;;;;;;;;5093587;28;20215;-68
2023/10/01 12:48:20;;;;;;;10.50;5.45;;;;;;;;;;5095222;28;20236;-72
2023/10/01 12:51:00;;;;;;;10.95;4.93;;;;;;;;;;5093001;28;20198;-71
2023/10/01 12:53:49;;;;;;;9.63;4.95;;;;;;;;;;5075714;28;20571;-75
2023/10/01 12:56:35;;;;;;;10.98;5.00;;;;;;;;;;5072245;28;20259;-72
2023/10/01 12:59:00;;;;;;;10.35;4.95;;;;;;;;;;5093796;28;20187;-74
2023/10/01 13:01:32;;;;;;;10.18;4.82;;;;;;;;;;5092505;28;20339;-70
2023/10/01 13:04:22;;;;;;;8.90;5.13;;;;;;;;;;5060171;28;20280;-74
2023/10/01 13:06:49;;;;;;;8.45;4.60;;;;;;;;;;5036210;28;20541;-71
2023/10/01 13:10:13;;;;;;;10.12;5.27;;;;;;;;;;4927883;28;10000413;-75
2023/10/01 13:12:25;;;;;;;12.85;6.00;;;;;;;;;;5043613;28;20449;-73
2023/10/01 13:17:43;;;;;;;11.68;5.88;;;;;;;;;;5046985;28;20584;-73
2023/10/01 13:20:26;;;;;;;10.95;5.10;;;;;;;;;;5054744;28;20669;-76
2023/10/01 13:22:59;;;;;;;10.98;4.90;;;;;;;;;;5049045;28;20767;-73
2023/10/01 13:25:24;;;;;;;8.43;4.80;;;;;;;;;;5056353;28;20320;-73
2023/10/01 13:28:06;;;;;;;10.80;5.35;;;;;;;;;;5063152;28;20287;-74
2023/10/01 13:31:03;;;;;;;13.60;5.93;;;;;;;;;;5067580;28;20185;-70
2023/10/01 13:36:23;;;;;;;9.70;5.25;;;;;;;;;;5044361;28;20198;-71
2023/10/01 13:39:12;;;;;;;13.30;5.35;;;;;;;;;;5060722;28;20249;-70
2023/10/01 14:08:55;;;;;;;10.82;5.70;;;;;;;;;;4991924;28;20335;-71
2023/10/01 14:11:26;;;;;;;13.32;6.35;;;;;;;;;;5068669;28;20228;-72
2023/10/01 14:13:53;;;;;;;10.38;5.72;;;;;;;;;;5074366;28;20243;-73
2023/10/01 14:16:22;;;;;;;11.82;6.05;;;;;;;;;;5089060;28;20260;-70
2023/10/01 14:18:54;;;;;;;12.07;5.95;;;;;;;;;;5087747;28;20990;-75
2023/10/01 14:21:24;;;;;;;12.90;6.25;;;;;;;;;;5070259;28;20647;-70
2023/10/01 14:23:52;;;;;;;13.05;6.60;;;;;;;;;;5084984;28;20324;-75
2023/10/01 14:26:21;;;;;;;16.73;5.55;;;;;;;;;;5053945;28;20188;-70
2023/10/01 14:28:49;;;;;;;11.07;6.50;;;;;;;;;;5085668;28;20658;-72
2023/10/01 14:31:41;;;;;;;14.73;6.45;;;;;;;;;;5096383;28;20191;-74
2023/10/01 14:34:03;;;;;;;13.10;6.65;;;;;;;;;;5086643;28;20184;-68
2023/10/01 14:36:29;;;;;;;13.00;5.93;;;;;;;;;;5083796;28;20312;-72
2023/10/01 14:38:58;;;;;;;14.55;7.35;;;;;;;;;;5093110;28;20235;-70
2023/10/01 14:41:24;;;;;;;15.73;6.80;;;;;;;;;;5105825;28;20656;-74
2023/10/01 14:43:51;;;;;;;11.48;6.30;;;;;;;;;;5067313;28;20284;-71
2023/10/01 14:46:37;;;;;;;14.73;6.82;;;;;;;;;;5053434;28;20621;-73
2023/10/01 14:49:04;;;;;;;12.52;6.47;;;;;;;;;;5065732;28;20272;-71
2023/10/01 14:51:32;;;;;;;14.30;7.10;;;;;;;;;;5087471;28;20256;-68
2023/10/01 14:53:58;;;;;;;13.73;6.05;;;;;;;;;;5092722;28;20678;-72
2023/10/01 14:56:25;;;;;;;14.88;6.50;;;;;;;;;;4384711;28;10000713;-74
2023/10/01 14:58:51;;;;;;;11.63;6.03;;;;;;;;;;5093839;28;20202;-75
2023/10/01 15:01:20;;;;;;;11.75;6.47;;;;;;;;;;5073659;28;20203;-77
2023/10/01 15:03:53;;;;;;;15.95;6.78;;;;;;;;;;5077040;28;20236;-71
2023/10/01 15:06:20;;;;;;;12.75;6.93;;;;;;;;;;5052543;28;20256;-72
2023/10/01 15:08:46;;;;;;;14.77;6.57;;;;;;;;;;5093727;28;20271;-76
2023/10/01 15:11:11;;;;;;;14.13;6.00;;;;;;;;;;5072597;28;20241;-74
2023/10/01 15:13:46;;;;;;;21.95;10.07;;;;;;;;;;5065512;28;20195;-71
2023/10/01 15:16:13;;;;;;;16.00;8.95;;;;;;;;;;5081754;28;20543;-71
2023/10/01 15:18:40;;;;;;;13.65;7.00;;;;;;;;;;5085882;28;20204;-75
2023/10/01 15:21:23;;;;;;;12.20;6.63;;;;;;;;;;5086684;28;20206;-72
2023/10/01 15:23:51;;;;;;;14.35;6.85;;;;;;;;;;5077922;28;20504;-73
2023/10/01 15:26:18;;;;;;;14.50;7.07;;;;;;;;;;5087967;28;20184;-75
2023/10/01 15:28:50;;;;;;;14.40;6.43;;;;;;;;;;5068689;28;20219;-73
2023/10/01 15:31:36;;;;;;;14.98;7.20;;;;;;;;;;5087224;28;20702;-75
2023/10/01 15:34:15;;;;;;;14.75;6.47;;;;;;;;;;5066793;28;20238;-73
2023/10/01 15:36:42;;;;;;;12.38;6.72;;;;;;;;;;5068403;28;20212;-74
2023/10/01 15:39:14;;;;;;;14.90;7.38;;;;;;;;;;5084286;28;20198;-75
2023/10/01 15:41:44;;;;;;;13.82;7.03;;;;;;;;;;5092572;28;20246;-72
2023/10/01 15:44:10;;;;;;;14.07;7.18;;;;;;;;;;5084713;28;20200;-75
2023/10/01 15:46:40;;;;;;;15.15;7.20;;;;;;;;;;5089514;28;20188;-75
2023/10/01 15:49:20;;;;;;;15.95;6.13;;;;;;;;;;5063111;28;20206;-75
2023/10/01 15:51:49;;;;;;;14.00;6.05;;;;;;;;;;5054800;28;20242;-72
2023/10/01 15:54:23;;;;;;;12.02;6.35;;;;;;;;;;5086325;28;20576;-76
2023/10/01 15:56:52;;;;;;;14.90;7.22;;;;;;;;;;5080191;28;20302;-74
2023/10/01 15:59:19;;;;;;;15.75;7.68;;;;;;;;;;5072189;28;20561;-73
2023/10/01 16:01:53;;;;;;;13.25;6.75;;;;;;;;;;5090289;28;20208;-72
2023/10/01 16:04:23;;;;;;;13.88;7.30;;;;;;;;;;5077906;28;20200;-70
2023/10/01 16:07:02;;;;;;;12.77;6.50;;;;;;;;;;5082511;28;20672;-72